Terminal Aerodrome Forecast
Issued by NWS Brownsville, TX

Home | Current Version | Previous Version | Text Only | Print | Product List | Glossary On
Versions: 1 2 3 4 5 6 7 8 9 10 11 12 13 14 15 16 17
000
FTUS44 KBRO 301100
TAFMFE
TAF
KMFE 301120Z 3012/0112 VRB04KT P6SM OVC008
      TEMPO 3012/3014 5SM -RA OVC006
     FM301400 35004KT P6SM SCT015 BKN025
     FM301700 11010KT P6SM VCSH SCT025 BKN050
     FM010000 14006KT P6SM FEW250=

USA.gov is the U.S. government's official web portal to all federal, state and local government web resources and services.